18:36
Airports
History
Links
Donate
Help keep this website running!
PayPal
Bitcoin
Information on this page is community maintained and may be outdated or inaccurate and is intended for reference only or PC simulator navigating.
Always use approved charts for navigating.
LIRZ
PERUGIAEdited 07-Mar-2012
PERUGIA (LIRZ)
Assisi, Umbria, Italy (6081)
(C)
Lat/Lng:43° 5' 45.27" N / 12° 30' 47.6" E
43.095907 / 12.513221
Elevation:693'ft 211mMSL
ID / ICAO:LIRZ
Runways:1
Longest:(01-19) 1,689.8m 5,544ft Asphalt
Controlled:Yes
Beacon:White-Green
Distance To
Airport ID:
Airport Radio Frequencies
Tower: 118.1
Nearby VORs <50NM
Nearby NDBs
METARUpdated 07-20-17 17:50 GMT
Altimeter: 29.88
Visibility: 6.2 statute miles
Wind: 9 knots (230°)
Temp: 32°c 90°f
Humidity: 18.3%

METAR: LIRZ 201750Z 23009KT CAVOK 32/05 Q1012

(Powered by phpweather)
Runway 01 / 19
Dimensions:1689.8 x 45.1m 5544' x 148'ft
Surface:Asphalt
Edge Lights:High intensity
Runway 01 [A]Runway 19 [B]
Heading:014°TH 194°TH
Lat:
Lng:
43° 5' 18.64"N
12° 30' 38.31"E
43° 6' 11.89"N
12° 30' 56.88"E
ALS:SALS
User Notes and Comments
Google Map
Nearby Airports
4 Foligno 15.1 NM
LIAF SE 138°
4 Arezzo 41.7 NM
LIQB (WX) NW 306°
4 Rieti 49.3 NM
LIQN (WX) SSE 159°
(C) VITERBO 51.0 NM
LIRV (WX) SSW 206°
(C) FALCONARA 55.8 NM
LIPY (WX) NE 49°
4 Fano 56.6 NM
LIDF NNE 27°
(C) Aeroporto dei Parchi 63.9 NM
LIAP SE 140°
VFR Chart
Flight Planning at SkyVector.com